sensor_id;sensor_type;location;lat;lon;timestamp;P1;durP1;ratioP1;P2;durP2;ratioP2
2452;SDS011;63678;47.994;7.854;2022-12-16T00:00:05;74.80;;;30.83;;
2452;SDS011;63678;47.994;7.854;2022-12-16T00:02:42;77.45;;;32.13;;
2452;SDS011;63678;47.994;7.854;2022-12-16T00:05:15;72.63;;;30.88;;
2452;SDS011;63678;47.994;7.854;2022-12-16T00:07:47;80.90;;;31.27;;
2452;SDS011;63678;47.994;7.854;2022-12-16T00:10:20;75.90;;;30.67;;
2452;SDS011;63678;47.994;7.854;2022-12-16T00:12:53;78.13;;;31.50;;
2452;SDS011;63678;47.994;7.854;2022-12-16T00:15:25;74.95;;;30.52;;
2452;SDS011;63678;47.994;7.854;2022-12-16T00:17:57;79.68;;;30.60;;
2452;SDS011;63678;47.994;7.854;2022-12-16T00:20:30;67.28;;;29.45;;
2452;SDS011;63678;47.994;7.854;2022-12-16T00:23:02;73.03;;;30.10;;
2452;SDS011;63678;47.994;7.854;2022-12-16T00:25:34;71.13;;;29.65;;
2452;SDS011;63678;47.994;7.854;2022-12-16T00:28:06;78.53;;;30.25;;
2452;SDS011;63678;47.994;7.854;2022-12-16T00:30:40;74.45;;;30.90;;
2452;SDS011;63678;47.994;7.854;2022-12-16T00:33:13;77.88;;;31.40;;
2452;SDS011;63678;47.994;7.854;2022-12-16T00:35:45;78.17;;;31.97;;
2452;SDS011;63678;47.994;7.854;2022-12-16T00:38:18;69.68;;;29.10;;
2452;SDS011;63678;47.994;7.854;2022-12-16T00:40:51;68.43;;;28.80;;
2452;SDS011;63678;47.994;7.854;2022-12-16T00:43:23;72.13;;;29.45;;
2452;SDS011;63678;47.994;7.854;2022-12-16T00:45:55;68.30;;;29.88;;
2452;SDS011;63678;47.994;7.854;2022-12-16T00:48:28;69.77;;;29.73;;
2452;SDS011;63678;47.994;7.854;2022-12-16T00:51:00;69.45;;;27.90;;
2452;SDS011;63678;47.994;7.854;2022-12-16T00:53:32;71.00;;;30.05;;
2452;SDS011;63678;47.994;7.854;2022-12-16T00:56:09;69.93;;;29.65;;
2452;SDS011;63678;47.994;7.854;2022-12-16T00:58:45;69.35;;;28.60;;
2452;SDS011;63678;47.994;7.854;2022-12-16T01:01:18;73.00;;;30.10;;
2452;SDS011;63678;47.994;7.854;2022-12-16T01:03:50;66.85;;;28.02;;
2452;SDS011;63678;47.994;7.854;2022-12-16T01:06:22;66.72;;;27.98;;
2452;SDS011;63678;47.994;7.854;2022-12-16T01:08:55;65.32;;;28.13;;
2452;SDS011;63678;47.994;7.854;2022-12-16T01:11:27;68.63;;;29.45;;
2452;SDS011;63678;47.994;7.854;2022-12-16T01:14:00;65.70;;;27.13;;
2452;SDS011;63678;47.994;7.854;2022-12-16T01:16:32;68.53;;;27.52;;
2452;SDS011;63678;47.994;7.854;2022-12-16T01:19:05;65.82;;;27.77;;
2452;SDS011;63678;47.994;7.854;2022-12-16T01:21:38;74.20;;;28.77;;
2452;SDS011;63678;47.994;7.854;2022-12-16T01:24:10;69.60;;;29.27;;
2452;SDS011;63678;47.994;7.854;2022-12-16T01:26:43;68.97;;;29.23;;
2452;SDS011;63678;47.994;7.854;2022-12-16T01:29:15;76.22;;;29.30;;
2452;SDS011;63678;47.994;7.854;2022-12-16T01:31:47;74.95;;;29.67;;
2452;SDS011;63678;47.994;7.854;2022-12-16T01:34:19;72.10;;;28.40;;
2452;SDS011;63678;47.994;7.854;2022-12-16T01:36:52;68.07;;;29.25;;
2452;SDS011;63678;47.994;7.854;2022-12-16T01:39:25;75.13;;;29.87;;
2452;SDS011;63678;47.994;7.854;2022-12-16T01:42:00;68.28;;;28.77;;
2452;SDS011;63678;47.994;7.854;2022-12-16T01:44:33;71.45;;;29.60;;
2452;SDS011;63678;47.994;7.854;2022-12-16T01:47:05;75.97;;;30.17;;
2452;SDS011;63678;47.994;7.854;2022-12-16T01:50:20;71.28;;;29.17;;
2452;SDS011;63678;47.994;7.854;2022-12-16T01:52:38;66.77;;;28.07;;
2452;SDS011;63678;47.994;7.854;2022-12-16T01:58:13;70.13;;;28.20;;
2452;SDS011;63678;47.994;7.854;2022-12-16T02:00:50;75.78;;;30.15;;
2452;SDS011;63678;47.994;7.854;2022-12-16T02:03:25;72.40;;;30.70;;
2452;SDS011;63678;47.994;7.854;2022-12-16T02:06:02;85.63;;;31.80;;
2452;SDS011;63678;47.994;7.854;2022-12-16T02:08:36;72.13;;;31.15;;
2452;SDS011;63678;47.994;7.854;2022-12-16T02:13:54;73.22;;;28.95;;
2452;SDS011;63678;47.994;7.854;2022-12-16T02:31:59;69.40;;;29.08;;
2452;SDS011;63678;47.994;7.854;2022-12-16T02:35:08;70.10;;;27.37;;
2452;SDS011;63678;47.994;7.854;2022-12-16T02:38:23;73.82;;;28.88;;
2452;SDS011;63678;47.994;7.854;2022-12-16T02:41:06;67.28;;;30.02;;
2452;SDS011;63678;47.994;7.854;2022-12-16T02:44:18;67.20;;;28.67;;
2452;SDS011;63678;47.994;7.854;2022-12-16T02:46:52;73.57;;;30.08;;
2452;SDS011;63678;47.994;7.854;2022-12-16T02:51:58;68.10;;;28.83;;
2452;SDS011;63678;47.994;7.854;2022-12-16T02:54:32;65.53;;;28.00;;
2452;SDS011;63678;47.994;7.854;2022-12-16T03:00:11;63.13;;;28.90;;
2452;SDS011;63678;47.994;7.854;2022-12-16T03:06:00;67.55;;;27.08;;
2452;SDS011;63678;47.994;7.854;2022-12-16T03:08:34;69.30;;;29.70;;
2452;SDS011;63678;47.994;7.854;2022-12-16T03:11:10;64.03;;;27.95;;
2452;SDS011;63678;47.994;7.854;2022-12-16T03:13:45;62.33;;;26.92;;
2452;SDS011;63678;47.994;7.854;2022-12-16T03:16:23;71.10;;;29.13;;
2452;SDS011;63678;47.994;7.854;2022-12-16T03:19:02;67.40;;;28.98;;
2452;SDS011;63678;47.994;7.854;2022-12-16T03:21:47;63.67;;;28.55;;
2452;SDS011;63678;47.994;7.854;2022-12-16T03:24:38;63.40;;;27.48;;
2452;SDS011;63678;47.994;7.854;2022-12-16T03:35:36;64.10;;;28.42;;
2452;SDS011;63678;47.994;7.854;2022-12-16T03:38:13;70.80;;;28.58;;
2452;SDS011;63678;47.994;7.854;2022-12-16T03:40:47;66.05;;;27.50;;
2452;SDS011;63678;47.994;7.854;2022-12-16T03:43:19;63.87;;;27.60;;
2452;SDS011;63678;47.994;7.854;2022-12-16T03:45:52;60.92;;;27.25;;
2452;SDS011;63678;47.994;7.854;2022-12-16T03:48:32;63.92;;;27.48;;
2452;SDS011;63678;47.994;7.854;2022-12-16T03:51:05;64.15;;;26.77;;
2452;SDS011;63678;47.994;7.854;2022-12-16T03:53:37;65.28;;;29.85;;
2452;SDS011;63678;47.994;7.854;2022-12-16T03:56:10;65.23;;;28.80;;
2452;SDS011;63678;47.994;7.854;2022-12-16T03:58:43;68.22;;;28.20;;
2452;SDS011;63678;47.994;7.854;2022-12-16T04:01:18;62.30;;;27.00;;
2452;SDS011;63678;47.994;7.854;2022-12-16T04:03:51;65.38;;;28.80;;
2452;SDS011;63678;47.994;7.854;2022-12-16T04:06:23;59.05;;;25.85;;
2452;SDS011;63678;47.994;7.854;2022-12-16T04:08:56;66.50;;;29.60;;
2452;SDS011;63678;47.994;7.854;2022-12-16T04:11:29;67.20;;;29.08;;
2452;SDS011;63678;47.994;7.854;2022-12-16T04:14:19;58.13;;;26.33;;
2452;SDS011;63678;47.994;7.854;2022-12-16T04:17:10;76.45;;;29.02;;
2452;SDS011;63678;47.994;7.854;2022-12-16T04:20:02;59.42;;;27.15;;
2452;SDS011;63678;47.994;7.854;2022-12-16T04:22:53;59.70;;;26.50;;
2452;SDS011;63678;47.994;7.854;2022-12-16T04:25:44;65.50;;;26.90;;
2452;SDS011;63678;47.994;7.854;2022-12-16T04:28:17;60.60;;;28.23;;
2452;SDS011;63678;47.994;7.854;2022-12-16T04:30:50;61.13;;;26.42;;
2452;SDS011;63678;47.994;7.854;2022-12-16T04:33:22;66.28;;;27.08;;
2452;SDS011;63678;47.994;7.854;2022-12-16T04:36:14;65.83;;;28.43;;
2452;SDS011;63678;47.994;7.854;2022-12-16T04:39:04;57.05;;;25.15;;
2452;SDS011;63678;47.994;7.854;2022-12-16T04:41:55;89.80;;;30.23;;
2452;SDS011;63678;47.994;7.854;2022-12-16T04:44:46;98.85;;;35.20;;
2452;SDS011;63678;47.994;7.854;2022-12-16T04:47:37;52.92;;;24.95;;
2452;SDS011;63678;47.994;7.854;2022-12-16T04:50:28;53.60;;;25.17;;
2452;SDS011;63678;47.994;7.854;2022-12-16T04:53:19;56.40;;;24.92;;
2452;SDS011;63678;47.994;7.854;2022-12-16T04:56:10;55.53;;;25.10;;
2452;SDS011;63678;47.994;7.854;2022-12-16T04:59:00;60.13;;;25.98;;
2452;SDS011;63678;47.994;7.854;2022-12-16T05:01:51;61.90;;;25.38;;
2452;SDS011;63678;47.994;7.854;2022-12-16T05:04:42;57.60;;;26.83;;
2452;SDS011;63678;47.994;7.854;2022-12-16T05:07:36;59.67;;;26.92;;
2452;SDS011;63678;47.994;7.854;2022-12-16T05:10:27;57.58;;;23.55;;
2452;SDS011;63678;47.994;7.854;2022-12-16T05:13:17;51.22;;;22.85;;
2452;SDS011;63678;47.994;7.854;2022-12-16T05:16:08;61.38;;;24.95;;
2452;SDS011;63678;47.994;7.854;2022-12-16T05:19:07;55.63;;;25.27;;
2452;SDS011;63678;47.994;7.854;2022-12-16T05:22:02;60.90;;;24.95;;
2452;SDS011;63678;47.994;7.854;2022-12-16T05:24:53;49.13;;;22.67;;
2452;SDS011;63678;47.994;7.854;2022-12-16T05:27:44;56.05;;;23.90;;
2452;SDS011;63678;47.994;7.854;2022-12-16T05:30:40;54.35;;;24.55;;
2452;SDS011;63678;47.994;7.854;2022-12-16T05:33:31;61.20;;;25.17;;
2452;SDS011;63678;47.994;7.854;2022-12-16T05:36:22;57.38;;;23.90;;
2452;SDS011;63678;47.994;7.854;2022-12-16T05:39:13;52.33;;;22.67;;
2452;SDS011;63678;47.994;7.854;2022-12-16T05:42:04;53.13;;;22.67;;
2452;SDS011;63678;47.994;7.854;2022-12-16T05:44:54;58.88;;;23.70;;
2452;SDS011;63678;47.994;7.854;2022-12-16T05:47:46;51.60;;;23.90;;
2452;SDS011;63678;47.994;7.854;2022-12-16T05:50:38;61.72;;;25.08;;
2452;SDS011;63678;47.994;7.854;2022-12-16T05:53:28;56.08;;;25.83;;
2452;SDS011;63678;47.994;7.854;2022-12-16T05:56:19;58.85;;;25.25;;
2452;SDS011;63678;47.994;7.854;2022-12-16T05:59:09;60.72;;;25.90;;
2452;SDS011;63678;47.994;7.854;2022-12-16T06:02:00;59.83;;;26.70;;
2452;SDS011;63678;47.994;7.854;2022-12-16T06:04:51;55.13;;;24.00;;
2452;SDS011;63678;47.994;7.854;2022-12-16T06:07:48;59.60;;;24.85;;
2452;SDS011;63678;47.994;7.854;2022-12-16T06:10:40;57.28;;;24.80;;
2452;SDS011;63678;47.994;7.854;2022-12-16T06:13:31;57.88;;;25.38;;
2452;SDS011;63678;47.994;7.854;2022-12-16T06:16:22;61.83;;;26.67;;
2452;SDS011;63678;47.994;7.854;2022-12-16T06:19:14;54.90;;;24.10;;
2452;SDS011;63678;47.994;7.854;2022-12-16T06:22:05;67.47;;;25.20;;
2452;SDS011;63678;47.994;7.854;2022-12-16T06:24:56;56.70;;;24.25;;
2452;SDS011;63678;47.994;7.854;2022-12-16T06:27:51;56.35;;;24.38;;
2452;SDS011;63678;47.994;7.854;2022-12-16T06:30:42;55.70;;;24.80;;
2452;SDS011;63678;47.994;7.854;2022-12-16T06:33:36;63.88;;;24.60;;
2452;SDS011;63678;47.994;7.854;2022-12-16T06:36:27;58.72;;;24.75;;
2452;SDS011;63678;47.994;7.854;2022-12-16T06:39:18;43.65;;;18.70;;
2452;SDS011;63678;47.994;7.854;2022-12-16T06:42:09;58.83;;;24.58;;
2452;SDS011;63678;47.994;7.854;2022-12-16T06:45:00;54.47;;;22.90;;
2452;SDS011;63678;47.994;7.854;2022-12-16T06:47:50;56.53;;;23.65;;
2452;SDS011;63678;47.994;7.854;2022-12-16T06:50:41;43.88;;;19.00;;
2452;SDS011;63678;47.994;7.854;2022-12-16T06:53:32;62.17;;;25.45;;
2452;SDS011;63678;47.994;7.854;2022-12-16T06:56:23;58.83;;;24.65;;
2452;SDS011;63678;47.994;7.854;2022-12-16T06:59:14;57.03;;;24.40;;
2452;SDS011;63678;47.994;7.854;2022-12-16T07:02:07;60.10;;;24.80;;
2452;SDS011;63678;47.994;7.854;2022-12-16T07:05:00;59.90;;;26.70;;
2452;SDS011;63678;47.994;7.854;2022-12-16T07:07:51;61.15;;;26.85;;
2452;SDS011;63678;47.994;7.854;2022-12-16T07:10:42;71.93;;;28.85;;
2452;SDS011;63678;47.994;7.854;2022-12-16T07:13:48;60.87;;;25.33;;
2452;SDS011;63678;47.994;7.854;2022-12-16T07:16:39;53.22;;;23.40;;
2452;SDS011;63678;47.994;7.854;2022-12-16T07:19:30;52.25;;;23.35;;
2452;SDS011;63678;47.994;7.854;2022-12-16T07:22:20;51.05;;;23.15;;
2452;SDS011;63678;47.994;7.854;2022-12-16T07:25:12;58.50;;;24.35;;
2452;SDS011;63678;47.994;7.854;2022-12-16T07:28:02;54.83;;;23.57;;
2452;SDS011;63678;47.994;7.854;2022-12-16T07:30:54;65.05;;;26.05;;
2452;SDS011;63678;47.994;7.854;2022-12-16T07:33:45;57.35;;;24.75;;
2452;SDS011;63678;47.994;7.854;2022-12-16T07:36:35;53.42;;;24.02;;
2452;SDS011;63678;47.994;7.854;2022-12-16T07:39:27;52.88;;;23.75;;
2452;SDS011;63678;47.994;7.854;2022-12-16T07:42:25;54.70;;;23.80;;
2452;SDS011;63678;47.994;7.854;2022-12-16T07:45:15;61.83;;;26.02;;
2452;SDS011;63678;47.994;7.854;2022-12-16T07:48:13;60.97;;;24.63;;
2452;SDS011;63678;47.994;7.854;2022-12-16T07:51:04;50.38;;;23.35;;
2452;SDS011;63678;47.994;7.854;2022-12-16T07:53:55;56.08;;;24.10;;
2452;SDS011;63678;47.994;7.854;2022-12-16T07:56:46;54.00;;;24.30;;
2452;SDS011;63678;47.994;7.854;2022-12-16T07:59:57;49.60;;;22.05;;
2452;SDS011;63678;47.994;7.854;2022-12-16T08:02:52;47.80;;;22.05;;
2452;SDS011;63678;47.994;7.854;2022-12-16T08:05:44;51.20;;;23.27;;
2452;SDS011;63678;47.994;7.854;2022-12-16T08:08:34;56.95;;;24.40;;
2452;SDS011;63678;47.994;7.854;2022-12-16T08:11:25;51.30;;;23.27;;
2452;SDS011;63678;47.994;7.854;2022-12-16T08:14:15;46.35;;;22.20;;
2452;SDS011;63678;47.994;7.854;2022-12-16T08:17:06;54.92;;;22.45;;
2452;SDS011;63678;47.994;7.854;2022-12-16T08:19:57;61.75;;;21.45;;
2452;SDS011;63678;47.994;7.854;2022-12-16T08:22:58;55.38;;;25.00;;
2452;SDS011;63678;47.994;7.854;2022-12-16T08:25:49;54.80;;;23.83;;
2452;SDS011;63678;47.994;7.854;2022-12-16T08:28:39;50.20;;;24.10;;
2452;SDS011;63678;47.994;7.854;2022-12-16T08:31:50;49.78;;;21.67;;
2452;SDS011;63678;47.994;7.854;2022-12-16T08:34:41;48.90;;;21.98;;
2452;SDS011;63678;47.994;7.854;2022-12-16T08:37:31;54.13;;;22.20;;
2452;SDS011;63678;47.994;7.854;2022-12-16T08:40:23;51.50;;;23.83;;
2452;SDS011;63678;47.994;7.854;2022-12-16T08:43:23;52.67;;;23.60;;
2452;SDS011;63678;47.994;7.854;2022-12-16T08:46:14;56.33;;;24.83;;
2452;SDS011;63678;47.994;7.854;2022-12-16T08:49:05;56.72;;;24.08;;
2452;SDS011;63678;47.994;7.854;2022-12-16T08:51:55;52.55;;;24.98;;
2452;SDS011;63678;47.994;7.854;2022-12-16T08:54:48;50.30;;;23.70;;
2452;SDS011;63678;47.994;7.854;2022-12-16T08:57:39;56.97;;;23.67;;
2452;SDS011;63678;47.994;7.854;2022-12-16T09:00:29;58.40;;;24.35;;
2452;SDS011;63678;47.994;7.854;2022-12-16T09:03:20;52.17;;;22.85;;
2452;SDS011;63678;47.994;7.854;2022-12-16T09:06:11;53.88;;;24.40;;
2452;SDS011;63678;47.994;7.854;2022-12-16T09:09:10;50.07;;;23.57;;
2452;SDS011;63678;47.994;7.854;2022-12-16T09:12:01;47.28;;;23.05;;
2452;SDS011;63678;47.994;7.854;2022-12-16T09:14:52;48.35;;;21.95;;
2452;SDS011;63678;47.994;7.854;2022-12-16T09:17:42;48.05;;;21.45;;
2452;SDS011;63678;47.994;7.854;2022-12-16T09:20:33;48.05;;;21.83;;
2452;SDS011;63678;47.994;7.854;2022-12-16T09:23:30;49.20;;;22.40;;
2452;SDS011;63678;47.994;7.854;2022-12-16T09:26:21;46.30;;;21.55;;
2452;SDS011;63678;47.994;7.854;2022-12-16T09:29:12;44.20;;;20.08;;
2452;SDS011;63678;47.994;7.854;2022-12-16T09:32:03;44.22;;;19.98;;
2452;SDS011;63678;47.994;7.854;2022-12-16T09:34:54;38.60;;;19.05;;
2452;SDS011;63678;47.994;7.854;2022-12-16T09:37:45;43.37;;;19.10;;
2452;SDS011;63678;47.994;7.854;2022-12-16T09:40:38;64.82;;;35.20;;
2452;SDS011;63678;47.994;7.854;2022-12-16T09:47:09;39.75;;;18.58;;
2452;SDS011;63678;47.994;7.854;2022-12-16T09:50:19;37.90;;;18.95;;
2452;SDS011;63678;47.994;7.854;2022-12-16T09:53:18;44.77;;;21.90;;
2452;SDS011;63678;47.994;7.854;2022-12-16T09:56:18;47.08;;;19.75;;
2452;SDS011;63678;47.994;7.854;2022-12-16T09:59:25;42.30;;;19.80;;
2452;SDS011;63678;47.994;7.854;2022-12-16T10:02:24;48.70;;;21.95;;
2452;SDS011;63678;47.994;7.854;2022-12-16T10:05:17;47.53;;;21.25;;
2452;SDS011;63678;47.994;7.854;2022-12-16T10:08:21;44.00;;;19.50;;
2452;SDS011;63678;47.994;7.854;2022-12-16T10:14:42;46.97;;;20.83;;
2452;SDS011;63678;47.994;7.854;2022-12-16T10:17:42;43.28;;;20.48;;
2452;SDS011;63678;47.994;7.854;2022-12-16T10:23:59;42.73;;;21.90;;
2452;SDS011;63678;47.994;7.854;2022-12-16T10:27:12;42.33;;;19.60;;
2452;SDS011;63678;47.994;7.854;2022-12-16T10:30:10;44.45;;;20.30;;
2452;SDS011;63678;47.994;7.854;2022-12-16T10:33:03;43.03;;;19.63;;
2452;SDS011;63678;47.994;7.854;2022-12-16T10:36:01;43.17;;;19.50;;
2452;SDS011;63678;47.994;7.854;2022-12-16T10:38:54;42.17;;;20.53;;
2452;SDS011;63678;47.994;7.854;2022-12-16T10:42:18;37.95;;;17.67;;
2452;SDS011;63678;47.994;7.854;2022-12-16T10:45:24;43.50;;;20.65;;
2452;SDS011;63678;47.994;7.854;2022-12-16T10:48:25;42.45;;;20.58;;
2452;SDS011;63678;47.994;7.854;2022-12-16T10:51:28;42.13;;;19.23;;
2452;SDS011;63678;47.994;7.854;2022-12-16T10:57:14;37.03;;;18.38;;
2452;SDS011;63678;47.994;7.854;2022-12-16T11:03:39;34.40;;;17.40;;
2452;SDS011;63678;47.994;7.854;2022-12-16T11:15:22;39.97;;;17.60;;
2452;SDS011;63678;47.994;7.854;2022-12-16T11:18:19;43.70;;;19.98;;
2452;SDS011;63678;47.994;7.854;2022-12-16T11:27:05;46.90;;;19.45;;
2452;SDS011;63678;47.994;7.854;2022-12-16T11:30:18;48.47;;;22.30;;
2452;SDS011;63678;47.994;7.854;2022-12-16T11:33:20;43.95;;;20.25;;
2452;SDS011;63678;47.994;7.854;2022-12-16T11:36:17;43.78;;;20.15;;
2452;SDS011;63678;47.994;7.854;2022-12-16T11:39:16;48.60;;;23.07;;
2452;SDS011;63678;47.994;7.854;2022-12-16T11:42:13;44.42;;;20.92;;
2452;SDS011;63678;47.994;7.854;2022-12-16T11:45:14;44.55;;;21.30;;
2452;SDS011;63678;47.994;7.854;2022-12-16T11:48:15;45.88;;;22.55;;
2452;SDS011;63678;47.994;7.854;2022-12-16T11:51:28;47.83;;;20.45;;
2452;SDS011;63678;47.994;7.854;2022-12-16T11:54:31;45.40;;;21.83;;
2452;SDS011;63678;47.994;7.854;2022-12-16T11:57:27;44.58;;;21.80;;
2452;SDS011;63678;47.994;7.854;2022-12-16T12:00:30;45.63;;;21.80;;
2452;SDS011;63678;47.994;7.854;2022-12-16T12:03:26;45.85;;;20.90;;
2452;SDS011;63678;47.994;7.854;2022-12-16T12:09:23;44.63;;;21.93;;
2452;SDS011;63678;47.994;7.854;2022-12-16T12:12:22;48.95;;;22.25;;
2452;SDS011;63678;47.994;7.854;2022-12-16T12:15:32;45.22;;;21.52;;
2452;SDS011;63678;47.994;7.854;2022-12-16T12:18:55;51.17;;;25.00;;
2452;SDS011;63678;47.994;7.854;2022-12-16T12:28:36;49.40;;;22.70;;
2452;SDS011;63678;47.994;7.854;2022-12-16T12:42:05;54.93;;;25.60;;
2452;SDS011;63678;47.994;7.854;2022-12-16T12:45:33;76.22;;;28.63;;
2452;SDS011;63678;47.994;7.854;2022-12-16T12:48:46;54.42;;;22.20;;
2452;SDS011;63678;47.994;7.854;2022-12-16T12:51:50;50.05;;;22.50;;
2452;SDS011;63678;47.994;7.854;2022-12-16T12:55:12;63.80;;;28.65;;
2452;SDS011;63678;47.994;7.854;2022-12-16T12:58:20;52.77;;;25.63;;
2452;SDS011;63678;47.994;7.854;2022-12-16T13:01:12;50.83;;;26.17;;
2452;SDS011;63678;47.994;7.854;2022-12-16T13:04:15;45.92;;;22.13;;
2452;SDS011;63678;47.994;7.854;2022-12-16T13:07:09;53.10;;;24.95;;
2452;SDS011;63678;47.994;7.854;2022-12-16T13:10:10;58.80;;;26.25;;
2452;SDS011;63678;47.994;7.854;2022-12-16T13:19:51;50.50;;;24.27;;
2452;SDS011;63678;47.994;7.854;2022-12-16T13:22:43;52.92;;;24.15;;
2452;SDS011;63678;47.994;7.854;2022-12-16T13:25:43;51.00;;;24.13;;
2452;SDS011;63678;47.994;7.854;2022-12-16T13:28:42;55.43;;;24.87;;
2452;SDS011;63678;47.994;7.854;2022-12-16T13:32:22;44.33;;;21.48;;
2452;SDS011;63678;47.994;7.854;2022-12-16T13:35:15;63.00;;;25.83;;
2452;SDS011;63678;47.994;7.854;2022-12-16T13:41:46;57.47;;;26.05;;
2452;SDS011;63678;47.994;7.854;2022-12-16T13:53:42;52.58;;;24.30;;
2452;SDS011;63678;47.994;7.854;2022-12-16T13:56:42;56.70;;;26.23;;
2452;SDS011;63678;47.994;7.854;2022-12-16T13:59:38;60.80;;;25.90;;
2452;SDS011;63678;47.994;7.854;2022-12-16T14:02:31;55.42;;;24.13;;
2452;SDS011;63678;47.994;7.854;2022-12-16T14:05:32;62.45;;;26.67;;
2452;SDS011;63678;47.994;7.854;2022-12-16T14:08:27;59.35;;;27.80;;
2452;SDS011;63678;47.994;7.854;2022-12-16T14:14:43;63.77;;;28.47;;
2452;SDS011;63678;47.994;7.854;2022-12-16T14:17:46;52.42;;;25.13;;
2452;SDS011;63678;47.994;7.854;2022-12-16T14:20:53;50.30;;;23.55;;
2452;SDS011;63678;47.994;7.854;2022-12-16T14:23:51;55.83;;;25.45;;
2452;SDS011;63678;47.994;7.854;2022-12-16T14:26:49;47.33;;;22.23;;
2452;SDS011;63678;47.994;7.854;2022-12-16T14:29:41;63.73;;;29.60;;
2452;SDS011;63678;47.994;7.854;2022-12-16T14:32:34;46.88;;;22.52;;
2452;SDS011;63678;47.994;7.854;2022-12-16T14:35:25;60.45;;;25.60;;
2452;SDS011;63678;47.994;7.854;2022-12-16T14:38:24;62.25;;;26.13;;
2452;SDS011;63678;47.994;7.854;2022-12-16T14:41:22;69.60;;;28.10;;
2452;SDS011;63678;47.994;7.854;2022-12-16T14:44:18;61.33;;;28.17;;
2452;SDS011;63678;47.994;7.854;2022-12-16T14:47:18;54.35;;;24.00;;
2452;SDS011;63678;47.994;7.854;2022-12-16T14:50:17;66.60;;;26.40;;
2452;SDS011;63678;47.994;7.854;2022-12-16T14:53:20;45.78;;;23.02;;
2452;SDS011;63678;47.994;7.854;2022-12-16T14:59:16;49.73;;;21.67;;
2452;SDS011;63678;47.994;7.854;2022-12-16T15:02:12;48.22;;;22.73;;
2452;SDS011;63678;47.994;7.854;2022-12-16T15:05:27;47.03;;;20.90;;
2452;SDS011;63678;47.994;7.854;2022-12-16T15:08:23;45.17;;;23.65;;
2452;SDS011;63678;47.994;7.854;2022-12-16T15:11:18;43.45;;;21.60;;
2452;SDS011;63678;47.994;7.854;2022-12-16T15:14:21;42.93;;;21.27;;
2452;SDS011;63678;47.994;7.854;2022-12-16T15:17:21;39.20;;;19.75;;
2452;SDS011;63678;47.994;7.854;2022-12-16T15:20:21;45.25;;;23.95;;
2452;SDS011;63678;47.994;7.854;2022-12-16T15:23:27;48.70;;;22.85;;
2452;SDS011;63678;47.994;7.854;2022-12-16T15:26:23;39.33;;;19.88;;
2452;SDS011;63678;47.994;7.854;2022-12-16T15:29:26;41.07;;;20.13;;
2452;SDS011;63678;47.994;7.854;2022-12-16T15:35:34;42.13;;;19.38;;
2452;SDS011;63678;47.994;7.854;2022-12-16T15:38:28;47.40;;;22.23;;
2452;SDS011;63678;47.994;7.854;2022-12-16T15:41:34;57.15;;;22.95;;
2452;SDS011;63678;47.994;7.854;2022-12-16T15:44:27;48.67;;;22.80;;
2452;SDS011;63678;47.994;7.854;2022-12-16T15:47:26;51.58;;;21.80;;
2452;SDS011;63678;47.994;7.854;2022-12-16T15:50:27;47.05;;;22.98;;
2452;SDS011;63678;47.994;7.854;2022-12-16T15:53:30;49.20;;;22.77;;
2452;SDS011;63678;47.994;7.854;2022-12-16T15:56:31;44.42;;;20.58;;
2452;SDS011;63678;47.994;7.854;2022-12-16T15:59:35;54.73;;;26.27;;
2452;SDS011;63678;47.994;7.854;2022-12-16T16:02:46;43.58;;;23.10;;
2452;SDS011;63678;47.994;7.854;2022-12-16T16:05:38;47.30;;;22.15;;
2452;SDS011;63678;47.994;7.854;2022-12-16T16:08:28;49.22;;;24.38;;
2452;SDS011;63678;47.994;7.854;2022-12-16T16:11:19;43.55;;;19.88;;
2452;SDS011;63678;47.994;7.854;2022-12-16T16:14:10;46.67;;;24.13;;
2452;SDS011;63678;47.994;7.854;2022-12-16T16:17:01;47.15;;;21.92;;
2452;SDS011;63678;47.994;7.854;2022-12-16T16:19:53;46.90;;;22.13;;
2452;SDS011;63678;47.994;7.854;2022-12-16T16:22:44;43.03;;;21.30;;
2452;SDS011;63678;47.994;7.854;2022-12-16T16:25:40;40.88;;;21.38;;
2452;SDS011;63678;47.994;7.854;2022-12-16T16:28:34;42.60;;;21.03;;
2452;SDS011;63678;47.994;7.854;2022-12-16T16:31:44;44.17;;;21.13;;
2452;SDS011;63678;47.994;7.854;2022-12-16T16:34:36;49.08;;;23.10;;
2452;SDS011;63678;47.994;7.854;2022-12-16T16:37:26;47.25;;;21.52;;
2452;SDS011;63678;47.994;7.854;2022-12-16T16:40:21;49.50;;;23.58;;
2452;SDS011;63678;47.994;7.854;2022-12-16T16:43:22;45.30;;;21.17;;
2452;SDS011;63678;47.994;7.854;2022-12-16T16:49:29;45.33;;;21.35;;
2452;SDS011;63678;47.994;7.854;2022-12-16T16:52:25;47.40;;;23.02;;
2452;SDS011;63678;47.994;7.854;2022-12-16T16:55:18;45.25;;;21.33;;
2452;SDS011;63678;47.994;7.854;2022-12-16T16:58:13;49.37;;;23.13;;
2452;SDS011;63678;47.994;7.854;2022-12-16T17:01:14;42.83;;;20.77;;
2452;SDS011;63678;47.994;7.854;2022-12-16T17:04:07;49.38;;;22.20;;
2452;SDS011;63678;47.994;7.854;2022-12-16T17:06:57;43.92;;;20.85;;
2452;SDS011;63678;47.994;7.854;2022-12-16T17:09:49;84.25;;;29.85;;
2452;SDS011;63678;47.994;7.854;2022-12-16T17:12:40;46.77;;;22.93;;
2452;SDS011;63678;47.994;7.854;2022-12-16T17:15:35;45.35;;;21.88;;
2452;SDS011;63678;47.994;7.854;2022-12-16T17:18:28;43.58;;;20.88;;
2452;SDS011;63678;47.994;7.854;2022-12-16T17:21:23;50.83;;;23.27;;
2452;SDS011;63678;47.994;7.854;2022-12-16T17:24:14;42.70;;;21.73;;
2452;SDS011;63678;47.994;7.854;2022-12-16T17:27:14;44.40;;;21.73;;
2452;SDS011;63678;47.994;7.854;2022-12-16T17:30:13;47.53;;;22.02;;
2452;SDS011;63678;47.994;7.854;2022-12-16T17:33:15;42.25;;;21.48;;
2452;SDS011;63678;47.994;7.854;2022-12-16T17:36:09;45.67;;;21.75;;
2452;SDS011;63678;47.994;7.854;2022-12-16T17:39:03;43.88;;;20.73;;
2452;SDS011;63678;47.994;7.854;2022-12-16T17:41:55;46.57;;;22.07;;
2452;SDS011;63678;47.994;7.854;2022-12-16T17:44:46;42.60;;;22.13;;
2452;SDS011;63678;47.994;7.854;2022-12-16T17:47:37;49.33;;;22.73;;
2452;SDS011;63678;47.994;7.854;2022-12-16T17:50:29;44.67;;;22.15;;
2452;SDS011;63678;47.994;7.854;2022-12-16T17:53:19;44.58;;;22.00;;
2452;SDS011;63678;47.994;7.854;2022-12-16T17:56:10;47.67;;;23.97;;
2452;SDS011;63678;47.994;7.854;2022-12-16T17:59:01;44.40;;;21.98;;
2452;SDS011;63678;47.994;7.854;2022-12-16T18:01:52;46.42;;;23.38;;
2452;SDS011;63678;47.994;7.854;2022-12-16T18:04:43;48.35;;;24.00;;
2452;SDS011;63678;47.994;7.854;2022-12-16T18:07:34;43.30;;;22.33;;
2452;SDS011;63678;47.994;7.854;2022-12-16T18:10:25;47.03;;;23.60;;
2452;SDS011;63678;47.994;7.854;2022-12-16T18:13:15;47.95;;;22.35;;
2452;SDS011;63678;47.994;7.854;2022-12-16T18:16:06;46.28;;;23.50;;
2452;SDS011;63678;47.994;7.854;2022-12-16T18:18:58;43.78;;;19.95;;
2452;SDS011;63678;47.994;7.854;2022-12-16T18:21:49;47.90;;;21.83;;
2452;SDS011;63678;47.994;7.854;2022-12-16T18:24:39;44.97;;;22.57;;
2452;SDS011;63678;47.994;7.854;2022-12-16T18:27:30;48.42;;;23.90;;
2452;SDS011;63678;47.994;7.854;2022-12-16T18:30:22;43.38;;;22.17;;
2452;SDS011;63678;47.994;7.854;2022-12-16T18:33:13;52.75;;;24.58;;
2452;SDS011;63678;47.994;7.854;2022-12-16T18:36:04;51.63;;;23.60;;
2452;SDS011;63678;47.994;7.854;2022-12-16T18:38:56;55.00;;;24.60;;
2452;SDS011;63678;47.994;7.854;2022-12-16T18:41:47;48.67;;;24.10;;
2452;SDS011;63678;47.994;7.854;2022-12-16T18:44:37;46.60;;;24.48;;
2452;SDS011;63678;47.994;7.854;2022-12-16T18:47:32;57.45;;;27.35;;
2452;SDS011;63678;47.994;7.854;2022-12-16T18:50:23;59.28;;;26.67;;
2452;SDS011;63678;47.994;7.854;2022-12-16T18:53:14;59.33;;;26.93;;